sensor_id;sensor_type;location;lat;lon;timestamp;pressure;altitude;pressure_sealevel;temperature;humidity
31873;BME280;22407;42.820;23.374;2023-12-07T00:01:05;95405.28;;;4.40;100.00
31873;BME280;22407;42.820;23.374;2023-12-07T00:03:31;95406.09;;;4.30;100.00
31873;BME280;22407;42.820;23.374;2023-12-07T00:05:56;95414.13;;;4.35;100.00
31873;BME280;22407;42.820;23.374;2023-12-07T00:08:22;95410.38;;;4.31;100.00
31873;BME280;22407;42.820;23.374;2023-12-07T00:10:49;95414.69;;;4.32;100.00
31873;BME280;22407;42.820;23.374;2023-12-07T00:13:14;95407.50;;;4.23;100.00
31873;BME280;22407;42.820;23.374;2023-12-07T00:15:40;95410.94;;;4.33;100.00
31873;BME280;22407;42.820;23.374;2023-12-07T00:18:06;95409.56;;;4.36;99.85
31873;BME280;22407;42.820;23.374;2023-12-07T00:20:31;95404.22;;;4.41;99.35
31873;BME280;22407;42.820;23.374;2023-12-07T00:22:57;95409.78;;;4.49;99.23
31873;BME280;22407;42.820;23.374;2023-12-07T00:25:22;95399.91;;;4.40;99.23
31873;BME280;22407;42.820;23.374;2023-12-07T00:27:48;95409.81;;;4.44;99.27
31873;BME280;22407;42.820;23.374;2023-12-07T00:30:14;95402.59;;;4.35;99.46
31873;BME280;22407;42.820;23.374;2023-12-07T00:32:40;95407.72;;;4.31;99.73
31873;BME280;22407;42.820;23.374;2023-12-07T00:35:09;95409.31;;;4.37;99.38
31873;BME280;22407;42.820;23.374;2023-12-07T00:37:35;95406.13;;;4.25;99.75
31873;BME280;22407;42.820;23.374;2023-12-07T00:40:01;95411.47;;;4.35;100.00
31873;BME280;22407;42.820;23.374;2023-12-07T00:42:27;95405.03;;;4.36;99.99
31873;BME280;22407;42.820;23.374;2023-12-07T00:44:53;95416.28;;;4.33;100.00
31873;BME280;22407;42.820;23.374;2023-12-07T00:47:18;95409.84;;;4.34;100.00
31873;BME280;22407;42.820;23.374;2023-12-07T00:49:44;95415.78;;;4.26;100.00
31873;BME280;22407;42.820;23.374;2023-12-07T00:52:09;95410.13;;;4.33;100.00
31873;BME280;22407;42.820;23.374;2023-12-07T00:54:35;95406.09;;;4.30;100.00
31873;BME280;22407;42.820;23.374;2023-12-07T00:57:00;95391.94;;;4.25;100.00
31873;BME280;22407;42.820;23.374;2023-12-07T00:59:26;95404.00;;;4.22;99.94
31873;BME280;22407;42.820;23.374;2023-12-07T01:01:51;95399.47;;;4.23;99.57
31873;BME280;22407;42.820;23.374;2023-12-07T01:04:17;95406.13;;;4.25;99.72
31873;BME280;22407;42.820;23.374;2023-12-07T01:06:43;95411.22;;;4.27;99.28
31873;BME280;22407;42.820;23.374;2023-12-07T01:09:09;95404.50;;;4.29;99.26
31873;BME280;22407;42.820;23.374;2023-12-07T01:11:39;95403.91;;;4.42;98.94
31873;BME280;22407;42.820;23.374;2023-12-07T01:14:05;95397.00;;;4.31;99.25
31873;BME280;22407;42.820;23.374;2023-12-07T01:16:31;95389.53;;;4.23;99.30
31873;BME280;22407;42.820;23.374;2023-12-07T01:18:57;95394.34;;;4.26;98.89
31873;BME280;22407;42.820;23.374;2023-12-07T01:21:23;95403.47;;;4.21;99.45
31873;BME280;22407;42.820;23.374;2023-12-07T01:23:49;95393.31;;;4.13;99.98
31873;BME280;22407;42.820;23.374;2023-12-07T01:26:14;95401.84;;;4.20;100.00
31873;BME280;22407;42.820;23.374;2023-12-07T01:28:40;95405.09;;;4.12;99.97
31873;BME280;22407;42.820;23.374;2023-12-07T01:31:05;95393.31;;;4.13;100.00
31873;BME280;22407;42.820;23.374;2023-12-07T01:33:31;95391.97;;;4.15;99.87
31873;BME280;22407;42.820;23.374;2023-12-07T01:35:56;95396.53;;;4.15;100.00
31873;BME280;22407;42.820;23.374;2023-12-07T01:38:22;95397.31;;;4.15;100.00
31873;BME280;22407;42.820;23.374;2023-12-07T01:40:48;95407.25;;;4.15;99.73
31873;BME280;22407;42.820;23.374;2023-12-07T01:43:14;95390.38;;;4.14;99.92
31873;BME280;22407;42.820;23.374;2023-12-07T01:45:39;95388.50;;;4.15;100.00
31873;BME280;22407;42.820;23.374;2023-12-07T01:48:06;95395.19;;;4.17;99.76
31873;BME280;22407;42.820;23.374;2023-12-07T01:50:32;95387.94;;;4.22;100.00
31873;BME280;22407;42.820;23.374;2023-12-07T01:53:01;95384.97;;;4.29;99.48
31873;BME280;22407;42.820;23.374;2023-12-07T01:55:27;95379.59;;;4.29;99.83
31873;BME280;22407;42.820;23.374;2023-12-07T01:57:54;95379.88;;;4.27;98.91
31873;BME280;22407;42.820;23.374;2023-12-07T02:00:20;95380.97;;;4.22;99.24
31873;BME280;22407;42.820;23.374;2023-12-07T02:02:46;95370.28;;;4.12;99.41
31873;BME280;22407;42.820;23.374;2023-12-07T02:05:15;95385.03;;;4.14;99.71
31873;BME280;22407;42.820;23.374;2023-12-07T02:07:41;95392.81;;;4.06;100.00
31873;BME280;22407;42.820;23.374;2023-12-07T02:10:08;95386.38;;;4.02;99.75
31873;BME280;22407;42.820;23.374;2023-12-07T02:12:34;95378.88;;;4.04;100.00
31873;BME280;22407;42.820;23.374;2023-12-07T02:15:02;95380.50;;;4.05;100.00
31873;BME280;22407;42.820;23.374;2023-12-07T02:17:35;95381.56;;;4.09;99.88
31873;BME280;22407;42.820;23.374;2023-12-07T02:20:23;95378.25;;;4.31;99.44
31873;BME280;22407;42.820;23.374;2023-12-07T02:22:56;95378.25;;;4.36;99.38
31873;BME280;22407;42.820;23.374;2023-12-07T02:26:03;95385.22;;;4.32;98.75
31873;BME280;22407;42.820;23.374;2023-12-07T02:28:49;95374.31;;;4.14;99.90
31873;BME280;22407;42.820;23.374;2023-12-07T02:31:14;95373.53;;;4.04;99.45
31873;BME280;22407;42.820;23.374;2023-12-07T02:33:40;95375.13;;;4.05;99.58
31873;BME280;22407;42.820;23.374;2023-12-07T02:36:05;95382.94;;;3.91;100.00
31873;BME280;22407;42.820;23.374;2023-12-07T02:38:32;95379.44;;;3.91;100.00
31873;BME280;22407;42.820;23.374;2023-12-07T02:40:59;95375.97;;;3.85;100.00
31873;BME280;22407;42.820;23.374;2023-12-07T02:43:26;95372.78;;;3.88;100.00
31873;BME280;22407;42.820;23.374;2023-12-07T02:45:52;95378.41;;;3.87;100.00
31873;BME280;22407;42.820;23.374;2023-12-07T02:48:20;95375.69;;;3.97;100.00
31873;BME280;22407;42.820;23.374;2023-12-07T02:50:46;95370.09;;;3.88;100.00
31873;BME280;22407;42.820;23.374;2023-12-07T02:53:11;95362.34;;;3.87;100.00
31873;BME280;22407;42.820;23.374;2023-12-07T02:55:37;95375.09;;;4.15;99.85
31873;BME280;22407;42.820;23.374;2023-12-07T02:58:03;95374.88;;;4.01;99.54
31873;BME280;22407;42.820;23.374;2023-12-07T03:00:29;95378.44;;;3.77;100.00
31873;BME280;22407;42.820;23.374;2023-12-07T03:02:54;95371.50;;;3.56;100.00
31873;BME280;22407;42.820;23.374;2023-12-07T03:05:20;95375.53;;;3.48;100.00
31873;BME280;22407;42.820;23.374;2023-12-07T03:07:48;95375.53;;;3.43;100.00
31873;BME280;22407;42.820;23.374;2023-12-07T03:10:13;95388.09;;;3.43;100.00
31873;BME280;22407;42.820;23.374;2023-12-07T03:12:39;95389.19;;;3.47;100.00
31873;BME280;22407;42.820;23.374;2023-12-07T03:15:05;95384.34;;;3.54;100.00
31873;BME280;22407;42.820;23.374;2023-12-07T03:17:30;95391.28;;;3.65;100.00
31873;BME280;22407;42.820;23.374;2023-12-07T03:19:56;95394.75;;;3.80;99.53
31873;BME280;22407;42.820;23.374;2023-12-07T03:22:21;95390.22;;;3.61;99.68
31873;BME280;22407;42.820;23.374;2023-12-07T03:24:50;95391.31;;;3.40;100.00
31873;BME280;22407;42.820;23.374;2023-12-07T03:27:16;95381.69;;;3.39;100.00
31873;BME280;22407;42.820;23.374;2023-12-07T03:29:42;95384.09;;;3.36;99.89
31873;BME280;22407;42.820;23.374;2023-12-07T03:32:07;95390.22;;;3.51;99.83
31873;BME280;22407;42.820;23.374;2023-12-07T03:34:33;95387.81;;;3.59;98.83
31873;BME280;22407;42.820;23.374;2023-12-07T03:36:58;95387.56;;;3.56;98.63
31873;BME280;22407;42.820;23.374;2023-12-07T03:39:27;95391.03;;;3.51;98.64
31873;BME280;22407;42.820;23.374;2023-12-07T03:41:55;95390.25;;;3.26;99.67
31873;BME280;22407;42.820;23.374;2023-12-07T03:44:20;95391.84;;;3.07;100.00
31873;BME280;22407;42.820;23.374;2023-12-07T03:46:46;95397.72;;;3.04;100.00
31873;BME280;22407;42.820;23.374;2023-12-07T03:49:12;95403.88;;;3.20;100.00
31873;BME280;22407;42.820;23.374;2023-12-07T03:51:38;95404.16;;;3.23;100.00
31873;BME280;22407;42.820;23.374;2023-12-07T03:54:04;95403.63;;;3.26;100.00
31873;BME280;22407;42.820;23.374;2023-12-07T03:56:32;95404.97;;;3.43;99.61
31873;BME280;22407;42.820;23.374;2023-12-07T03:58:58;95402.00;;;3.55;99.62
31873;BME280;22407;42.820;23.374;2023-12-07T04:01:24;95403.09;;;3.39;99.66
31873;BME280;22407;42.820;23.374;2023-12-07T04:03:51;95396.66;;;3.30;99.71
31873;BME280;22407;42.820;23.374;2023-12-07T04:06:17;95398.81;;;3.33;100.00
31873;BME280;22407;42.820;23.374;2023-12-07T04:08:44;95403.34;;;3.42;100.00
31873;BME280;22407;42.820;23.374;2023-12-07T04:11:10;95387.03;;;3.49;99.62
31873;BME280;22407;42.820;23.374;2023-12-07T04:13:36;95397.44;;;3.45;99.72
31873;BME280;22407;42.820;23.374;2023-12-07T04:16:05;95401.50;;;3.38;100.00
31873;BME280;22407;42.820;23.374;2023-12-07T04:18:31;95399.88;;;3.57;100.00
31873;BME280;22407;42.820;23.374;2023-12-07T04:20:56;95405.75;;;3.34;100.00
31873;BME280;22407;42.820;23.374;2023-12-07T04:23:22;95397.19;;;3.57;100.00
31873;BME280;22407;42.820;23.374;2023-12-07T04:25:47;95403.34;;;3.33;100.00
31873;BME280;22407;42.820;23.374;2023-12-07T04:28:13;95409.22;;;3.35;100.00
31873;BME280;22407;42.820;23.374;2023-12-07T04:30:38;95412.44;;;3.37;100.00
31873;BME280;22407;42.820;23.374;2023-12-07T04:33:04;95408.69;;;3.62;100.00
31873;BME280;22407;42.820;23.374;2023-12-07T04:35:30;95420.19;;;3.53;100.00
31873;BME280;22407;42.820;23.374;2023-12-07T04:37:56;95404.44;;;3.41;100.00
31873;BME280;22407;42.820;23.374;2023-12-07T04:40:22;95416.97;;;3.51;100.00
31873;BME280;22407;42.820;23.374;2023-12-07T04:42:47;95424.19;;;3.55;100.00
31873;BME280;22407;42.820;23.374;2023-12-07T04:45:13;95421.25;;;3.52;100.00
31873;BME280;22407;42.820;23.374;2023-12-07T04:47:38;95418.34;;;3.53;100.00
31873;BME280;22407;42.820;23.374;2023-12-07T04:50:04;95419.16;;;3.39;100.00
31873;BME280;22407;42.820;23.374;2023-12-07T04:52:30;95420.19;;;3.23;100.00
31873;BME280;22407;42.820;23.374;2023-12-07T04:54:55;95423.38;;;3.20;100.00
31873;BME280;22407;42.820;23.374;2023-12-07T04:57:21;95422.06;;;3.28;100.00
31873;BME280;22407;42.820;23.374;2023-12-07T04:59:46;95413.81;;;3.39;100.00
31873;BME280;22407;42.820;23.374;2023-12-07T05:02:16;95419.38;;;3.57;100.00
31873;BME280;22407;42.820;23.374;2023-12-07T05:04:42;95429.28;;;3.67;100.00
31873;BME280;22407;42.820;23.374;2023-12-07T05:07:08;95422.03;;;3.77;100.00
31873;BME280;22407;42.820;23.374;2023-12-07T05:09:34;95421.78;;;3.84;100.00
31873;BME280;22407;42.820;23.374;2023-12-07T05:12:00;95415.81;;;4.17;99.82
31873;BME280;22407;42.820;23.374;2023-12-07T05:14:26;95415.31;;;4.05;99.61
31873;BME280;22407;42.820;23.374;2023-12-07T05:16:51;95427.13;;;3.99;99.09
31873;BME280;22407;42.820;23.374;2023-12-07T05:19:22;95427.94;;;3.94;100.00
31873;BME280;22407;42.820;23.374;2023-12-07T05:21:47;95425.28;;;3.84;99.91
31873;BME280;22407;42.820;23.374;2023-12-07T05:24:13;95418.59;;;3.77;100.00
31873;BME280;22407;42.820;23.374;2023-12-07T05:26:41;95428.47;;;3.76;100.00
31873;BME280;22407;42.820;23.374;2023-12-07T05:29:07;95428.75;;;3.75;100.00
31873;BME280;22407;42.820;23.374;2023-12-07T05:31:32;95438.34;;;4.06;100.00
31873;BME280;22407;42.820;23.374;2023-12-07T05:34:00;95417.50;;;3.83;100.00
31873;BME280;22407;42.820;23.374;2023-12-07T05:36:26;95427.91;;;3.89;100.00
31873;BME280;22407;42.820;23.374;2023-12-07T05:38:52;95426.03;;;4.05;100.00
31873;BME280;22407;42.820;23.374;2023-12-07T05:41:17;95435.69;;;3.96;99.93
31873;BME280;22407;42.820;23.374;2023-12-07T05:43:43;95430.63;;;3.59;100.00
31873;BME280;22407;42.820;23.374;2023-12-07T05:46:11;95441.59;;;3.63;100.00
31873;BME280;22407;42.820;23.374;2023-12-07T05:48:37;95442.13;;;3.55;100.00
31873;BME280;22407;42.820;23.374;2023-12-07T05:51:03;95453.66;;;3.70;100.00
31873;BME280;22407;42.820;23.374;2023-12-07T05:53:28;95456.59;;;3.64;100.00
31873;BME280;22407;42.820;23.374;2023-12-07T05:55:54;95461.66;;;3.55;100.00
31873;BME280;22407;42.820;23.374;2023-12-07T05:58:20;95465.16;;;3.66;100.00
31873;BME280;22407;42.820;23.374;2023-12-07T06:00:45;95462.44;;;3.91;100.00
31873;BME280;22407;42.820;23.374;2023-12-07T06:03:15;95468.88;;;3.85;100.00
31873;BME280;22407;42.820;23.374;2023-12-07T06:05:41;95464.88;;;3.57;100.00
31873;BME280;22407;42.820;23.374;2023-12-07T06:08:07;95460.88;;;3.55;100.00
31873;BME280;22407;42.820;23.374;2023-12-07T06:10:32;95473.44;;;3.59;100.00
31873;BME280;22407;42.820;23.374;2023-12-07T06:12:58;95477.47;;;3.77;100.00
31873;BME280;22407;42.820;23.374;2023-12-07T06:15:26;95479.59;;;3.65;100.00
31873;BME280;22407;42.820;23.374;2023-12-07T06:17:53;95483.88;;;3.76;100.00
31873;BME280;22407;42.820;23.374;2023-12-07T06:20:19;95483.38;;;3.69;100.00
31873;BME280;22407;42.820;23.374;2023-12-07T06:22:45;95491.38;;;3.74;100.00
31873;BME280;22407;42.820;23.374;2023-12-07T06:25:11;95488.16;;;3.87;100.00
31873;BME280;22407;42.820;23.374;2023-12-07T06:27:37;95487.63;;;3.70;100.00
31873;BME280;22407;42.820;23.374;2023-12-07T06:30:03;95498.34;;;3.85;100.00
31873;BME280;22407;42.820;23.374;2023-12-07T06:32:34;95495.41;;;3.81;100.00
31873;BME280;22407;42.820;23.374;2023-12-07T06:35:00;95499.44;;;3.79;100.00
31873;BME280;22407;42.820;23.374;2023-12-07T06:37:25;95494.34;;;3.72;100.00
31873;BME280;22407;42.820;23.374;2023-12-07T06:39:51;95497.78;;;3.83;100.00
31873;BME280;22407;42.820;23.374;2023-12-07T06:42:17;95497.25;;;3.81;100.00
31873;BME280;22407;42.820;23.374;2023-12-07T06:44:49;95484.41;;;3.83;100.00
31873;BME280;22407;42.820;23.374;2023-12-07T06:47:15;95501.53;;;4.02;100.00
31873;BME280;22407;42.820;23.374;2023-12-07T06:49:41;95503.94;;;4.08;100.00
31873;BME280;22407;42.820;23.374;2023-12-07T06:52:06;95499.91;;;4.16;100.00
31873;BME280;22407;42.820;23.374;2023-12-07T06:54:33;95496.16;;;4.22;100.00
31873;BME280;22407;42.820;23.374;2023-12-07T06:56:58;95505.25;;;4.25;100.00
31873;BME280;22407;42.820;23.374;2023-12-07T06:59:24;95497.75;;;4.27;100.00
31873;BME280;22407;42.820;23.374;2023-12-07T07:01:49;95500.91;;;4.39;100.00
31873;BME280;22407;42.820;23.374;2023-12-07T07:04:15;95497.72;;;4.37;100.00
31873;BME280;22407;42.820;23.374;2023-12-07T07:06:41;95493.13;;;4.48;100.00
31873;BME280;22407;42.820;23.374;2023-12-07T07:09:07;95498.22;;;4.54;100.00
31873;BME280;22407;42.820;23.374;2023-12-07T07:11:33;95497.94;;;4.61;100.00
31873;BME280;22407;42.820;23.374;2023-12-07T07:13:59;95492.44;;;4.91;100.00
31873;BME280;22407;42.820;23.374;2023-12-07T07:16:25;95500.78;;;4.79;98.93
31873;BME280;22407;42.820;23.374;2023-12-07T07:18:50;95498.84;;;4.95;96.13
31873;BME280;22407;42.820;23.374;2023-12-07T07:21:16;95486.88;;;4.77;96.80
31873;BME280;22407;42.820;23.374;2023-12-07T07:23:41;95495.91;;;4.91;97.29
31873;BME280;22407;42.820;23.374;2023-12-07T07:26:07;95490.63;;;4.76;96.76
31873;BME280;22407;42.820;23.374;2023-12-07T07:28:33;95495.97;;;4.86;96.45
31873;BME280;22407;42.820;23.374;2023-12-07T07:31:00;95497.22;;;5.04;96.85
31873;BME280;22407;42.820;23.374;2023-12-07T07:33:25;95502.25;;;5.10;97.19
31873;BME280;22407;42.820;23.374;2023-12-07T07:35:51;95502.53;;;5.13;96.60
31873;BME280;22407;42.820;23.374;2023-12-07T07:38:17;95501.81;;;4.93;96.50
31873;BME280;22407;42.820;23.374;2023-12-07T07:40:42;95508.75;;;4.99;96.41
31873;BME280;22407;42.820;23.374;2023-12-07T07:43:08;95514.91;;;5.05;95.42
31873;BME280;22407;42.820;23.374;2023-12-07T07:45:34;95515.81;;;4.85;95.15
31873;BME280;22407;42.820;23.374;2023-12-07T07:48:00;95527.56;;;4.89;95.03
31873;BME280;22407;42.820;23.374;2023-12-07T07:50:25;95518.41;;;5.00;96.12
31873;BME280;22407;42.820;23.374;2023-12-07T07:52:51;95525.41;;;4.91;94.31
31873;BME280;22407;42.820;23.374;2023-12-07T07:55:16;95513.66;;;4.82;94.51
31873;BME280;22407;42.820;23.374;2023-12-07T07:57:43;95536.31;;;5.14;94.67
31873;BME280;22407;42.820;23.374;2023-12-07T08:00:09;95518.88;;;5.17;94.45
31873;BME280;22407;42.820;23.374;2023-12-07T08:02:35;95535.47;;;5.24;94.19
31873;BME280;22407;42.820;23.374;2023-12-07T08:05:02;95532.34;;;5.07;94.44
31873;BME280;22407;42.820;23.374;2023-12-07T08:07:27;95541.28;;;4.83;94.87
31873;BME280;22407;42.820;23.374;2023-12-07T08:09:53;95543.16;;;4.87;95.07
31873;BME280;22407;42.820;23.374;2023-12-07T08:12:18;95538.88;;;4.86;95.65
31873;BME280;22407;42.820;23.374;2023-12-07T08:14:44;95545.22;;;5.00;94.96
31873;BME280;22407;42.820;23.374;2023-12-07T08:17:11;95546.06;;;4.96;94.18
31873;BME280;22407;42.820;23.374;2023-12-07T08:19:37;95551.97;;;4.93;94.76
31873;BME280;22407;42.820;23.374;2023-12-07T08:22:03;95547.97;;;4.85;93.89
31873;BME280;22407;42.820;23.374;2023-12-07T08:24:28;95551.72;;;4.84;93.67
31873;BME280;22407;42.820;23.374;2023-12-07T08:26:54;95543.13;;;4.97;94.17
31873;BME280;22407;42.820;23.374;2023-12-07T08:29:19;95555.97;;;5.00;94.16
31873;BME280;22407;42.820;23.374;2023-12-07T08:31:45;95560.00;;;5.03;94.72
31873;BME280;22407;42.820;23.374;2023-12-07T08:34:12;95557.31;;;4.98;93.76
31873;BME280;22407;42.820;23.374;2023-12-07T08:36:37;95561.84;;;5.07;94.41
31873;BME280;22407;42.820;23.374;2023-12-07T08:39:03;95552.72;;;5.08;94.44
31873;BME280;22407;42.820;23.374;2023-12-07T08:41:28;95553.31;;;4.95;93.71
31873;BME280;22407;42.820;23.374;2023-12-07T08:43:54;95560.25;;;5.06;94.70
31873;BME280;22407;42.820;23.374;2023-12-07T08:46:19;95566.63;;;5.15;93.54
31873;BME280;22407;42.820;23.374;2023-12-07T08:48:44;95566.69;;;5.00;94.42
31873;BME280;22407;42.820;23.374;2023-12-07T08:51:10;95568.88;;;4.98;95.10
31873;BME280;22407;42.820;23.374;2023-12-07T08:53:37;95561.59;;;5.04;94.80
31873;BME280;22407;42.820;23.374;2023-12-07T08:56:03;95565.31;;;5.12;94.90
31873;BME280;22407;42.820;23.374;2023-12-07T08:58:29;95560.25;;;5.06;94.38
31873;BME280;22407;42.820;23.374;2023-12-07T09:00:54;95550.25;;;5.21;93.05
31873;BME280;22407;42.820;23.374;2023-12-07T09:03:20;95555.22;;;5.43;93.21
31873;BME280;22407;42.820;23.374;2023-12-07T09:05:46;95551.47;;;5.44;91.69
31873;BME280;22407;42.820;23.374;2023-12-07T09:08:11;95549.13;;;5.27;90.70
31873;BME280;22407;42.820;23.374;2023-12-07T09:10:37;95556.84;;;5.44;90.19
31873;BME280;22407;42.820;23.374;2023-12-07T09:13:02;95554.19;;;5.39;91.85
31873;BME280;22407;42.820;23.374;2023-12-07T09:15:28;95557.53;;;5.16;90.12
31873;BME280;22407;42.820;23.374;2023-12-07T09:17:54;95556.34;;;5.37;90.43
31873;BME280;22407;42.820;23.374;2023-12-07T09:20:19;95552.19;;;5.54;88.90
31873;BME280;22407;42.820;23.374;2023-12-07T09:22:46;95553.56;;;5.52;88.14
31873;BME280;22407;42.820;23.374;2023-12-07T09:25:12;95551.72;;;5.47;88.37
31873;BME280;22407;42.820;23.374;2023-12-07T09:27:38;95552.53;;;5.48;90.43
31873;BME280;22407;42.820;23.374;2023-12-07T09:30:08;95553.66;;;5.37;87.45
31873;BME280;22407;42.820;23.374;2023-12-07T09:32:38;95551.75;;;5.42;88.26
31873;BME280;22407;42.820;23.374;2023-12-07T09:35:08;95546.16;;;5.34;88.57
31873;BME280;22407;42.820;23.374;2023-12-07T09:37:35;95541.38;;;5.26;88.60
31873;BME280;22407;42.820;23.374;2023-12-07T09:40:01;95547.75;;;5.35;88.94
31873;BME280;22407;42.820;23.374;2023-12-07T09:42:27;95546.81;;;5.54;90.24
31873;BME280;22407;42.820;23.374;2023-12-07T09:44:53;95549.84;;;5.48;91.28
31873;BME280;22407;42.820;23.374;2023-12-07T09:47:19;95539.66;;;5.40;91.36
31873;BME280;22407;42.820;23.374;2023-12-07T09:49:45;95542.81;;;5.52;91.24
31873;BME280;22407;42.820;23.374;2023-12-07T09:52:11;95544.97;;;5.50;91.93
31873;BME280;22407;42.820;23.374;2023-12-07T09:54:40;95547.94;;;5.53;91.67
31873;BME280;22407;42.820;23.374;2023-12-07T09:57:07;95544.59;;;5.23;90.83
31873;BME280;22407;42.820;23.374;2023-12-07T09:59:40;95547.94;;;5.48;89.95
31873;BME280;22407;42.820;23.374;2023-12-07T10:02:06;95543.13;;;5.50;91.34
31873;BME280;22407;42.820;23.374;2023-12-07T10:04:32;95546.88;;;5.44;91.55
31873;BME280;22407;42.820;23.374;2023-12-07T10:06:58;95550.41;;;5.45;91.17
31873;BME280;22407;42.820;23.374;2023-12-07T10:09:24;95550.47;;;5.30;91.59
31873;BME280;22407;42.820;23.374;2023-12-07T10:11:49;95547.28;;;5.28;92.23
31873;BME280;22407;42.820;23.374;2023-12-07T10:14:15;95548.81;;;5.39;93.14
31873;BME280;22407;42.820;23.374;2023-12-07T10:16:59;95549.13;;;5.27;94.48
31873;BME280;22407;42.820;23.374;2023-12-07T10:19:26;95545.13;;;5.20;94.76
31873;BME280;22407;42.820;23.374;2023-12-07T10:21:56;95536.59;;;5.18;94.34
31873;BME280;22407;42.820;23.374;2023-12-07T10:24:22;95544.00;;;5.36;94.89
31873;BME280;22407;42.820;23.374;2023-12-07T10:26:49;95541.44;;;5.11;93.90
31873;BME280;22407;42.820;23.374;2023-12-07T10:29:18;95543.03;;;5.12;95.02
31873;BME280;22407;42.820;23.374;2023-12-07T10:31:48;95538.50;;;5.07;94.80
31873;BME280;22407;42.820;23.374;2023-12-07T10:34:17;95536.41;;;4.95;94.57
31873;BME280;22407;42.820;23.374;2023-12-07T10:36:46;95538.63;;;4.83;95.64
31873;BME280;22407;42.820;23.374;2023-12-07T10:39:12;95544.25;;;4.76;93.73
31873;BME280;22407;42.820;23.374;2023-12-07T10:41:40;95532.97;;;4.79;94.85
31873;BME280;22407;42.820;23.374;2023-12-07T10:44:09;95537.22;;;4.95;94.57
31873;BME280;22407;42.820;23.374;2023-12-07T10:46:39;95539.78;;;5.20;93.70
31873;BME280;22407;42.820;23.374;2023-12-07T10:49:08;95544.94;;;5.07;93.63
31873;BME280;22407;42.820;23.374;2023-12-07T10:51:39;95539.81;;;5.10;94.30
31873;BME280;22407;42.820;23.374;2023-12-07T10:54:06;95543.66;;;4.89;93.48
31873;BME280;22407;42.820;23.374;2023-12-07T10:56:44;95542.53;;;5.05;93.79
31873;BME280;22407;42.820;23.374;2023-12-07T10:59:10;95544.97;;;4.97;95.10
31873;BME280;22407;42.820;23.374;2023-12-07T11:01:39;95542.00;;;5.03;94.85
31873;BME280;22407;42.820;23.374;2023-12-07T11:04:06;95532.88;;;4.99;94.26
31873;BME280;22407;42.820;23.374;2023-12-07T11:06:32;95538.31;;;4.84;94.11
31873;BME280;22407;42.820;23.374;2023-12-07T11:09:00;95542.13;;;4.73;95.11
31873;BME280;22407;42.820;23.374;2023-12-07T11:11:42;95535.09;;;4.87;95.58
31873;BME280;22407;42.820;23.374;2023-12-07T11:14:10;95540.34;;;5.17;94.02
31873;BME280;22407;42.820;23.374;2023-12-07T11:16:43;95530.44;;;5.12;94.67
31873;BME280;22407;42.820;23.374;2023-12-07T11:21:56;95533.66;;;5.05;93.72
31873;BME280;22407;42.820;23.374;2023-12-07T11:24:23;95533.41;;;5.06;93.78
31873;BME280;22407;42.820;23.374;2023-12-07T11:26:51;95539.31;;;5.03;92.82
31873;BME280;22407;42.820;23.374;2023-12-07T11:29:20;95523.47;;;5.07;93.21
31873;BME280;22407;42.820;23.374;2023-12-07T11:31:45;95529.22;;;4.85;92.77
31873;BME280;22407;42.820;23.374;2023-12-07T11:34:11;95533.72;;;5.00;92.67
31873;BME280;22407;42.820;23.374;2023-12-07T11:36:39;95535.81;;;5.07;90.87
31873;BME280;22407;42.820;23.374;2023-12-07T11:41:43;95538.31;;;4.84;92.02
31873;BME280;22407;42.820;23.374;2023-12-07T11:44:10;95533.44;;;5.01;91.07
31873;BME280;22407;42.820;23.374;2023-12-07T11:46:37;95523.31;;;4.88;92.49
31873;BME280;22407;42.820;23.374;2023-12-07T11:49:03;95528.88;;;4.97;92.22
31873;BME280;22407;42.820;23.374;2023-12-07T11:51:30;95534.00;;;4.93;92.11
31873;BME280;22407;42.820;23.374;2023-12-07T11:53:56;95538.38;;;4.69;92.71
31873;BME280;22407;42.820;23.374;2023-12-07T11:56:21;95527.13;;;4.62;93.47
31873;BME280;22407;42.820;23.374;2023-12-07T11:58:47;95534.00;;;4.93;93.52
31873;BME280;22407;42.820;23.374;2023-12-07T12:01:15;95534.63;;;4.65;92.99
31873;BME280;22407;42.820;23.374;2023-12-07T12:03:42;95539.97;;;4.75;93.27
31873;BME280;22407;42.820;23.374;2023-12-07T12:06:08;95536.44;;;4.90;93.53
31873;BME280;22407;42.820;23.374;2023-12-07T12:08:36;95538.94;;;4.66;92.68
31873;BME280;22407;42.820;23.374;2023-12-07T12:11:01;95544.81;;;4.63;93.08
31873;BME280;22407;42.820;23.374;2023-12-07T12:13:29;95545.06;;;4.67;93.01
31873;BME280;22407;42.820;23.374;2023-12-07T12:15:55;95546.97;;;4.61;92.44
31873;BME280;22407;42.820;23.374;2023-12-07T12:18:21;95542.69;;;4.65;92.90
31873;BME280;22407;42.820;23.374;2023-12-07T12:20:47;95542.66;;;4.75;93.42
31873;BME280;22407;42.820;23.374;2023-12-07T12:23:12;95542.16;;;4.68;93.99
31873;BME280;22407;42.820;23.374;2023-12-07T12:25:38;95538.41;;;4.54;93.29
31873;BME280;22407;42.820;23.374;2023-12-07T12:28:05;95547.03;;;4.36;92.66
31873;BME280;22407;42.820;23.374;2023-12-07T12:30:32;95551.84;;;4.44;92.81
31873;BME280;22407;42.820;23.374;2023-12-07T12:32:58;95552.06;;;4.63;93.17
31873;BME280;22407;42.820;23.374;2023-12-07T12:35:27;95549.72;;;4.36;92.92
31873;BME280;22407;42.820;23.374;2023-12-07T12:37:52;95554.25;;;4.36;94.28
31873;BME280;22407;42.820;23.374;2023-12-07T12:40:21;95555.31;;;4.35;93.49
31873;BME280;22407;42.820;23.374;2023-12-07T12:42:51;95559.88;;;4.34;94.44
31873;BME280;22407;42.820;23.374;2023-12-07T12:45:18;95569.50;;;4.50;93.76
31873;BME280;22407;42.820;23.374;2023-12-07T12:47:44;95563.06;;;4.51;93.94
31873;BME280;22407;42.820;23.374;2023-12-07T12:50:12;95566.03;;;4.45;93.54
31873;BME280;22407;42.820;23.374;2023-12-07T12:52:41;95563.38;;;4.35;93.23
31873;BME280;22407;42.820;23.374;2023-12-07T12:55:08;95561.00;;;3.99;93.20
31873;BME280;22407;42.820;23.374;2023-12-07T12:57:35;95560.19;;;4.03;93.31
31873;BME280;22407;42.820;23.374;2023-12-07T13:00:01;95565.81;;;3.97;94.78